Time;durP1;ratioP1;P1;durP2;ratioP2;P2;SDS_P1;SDS_P2;PMS_P1;PMS_P2;Temp;Humidity;BMP_temperature;BMP_pressure;BME280_temperature;BME280_humidity;BME280_pressure;Samples;Min_cycle;Max_cycle;Signal;HPM_P1;HPM_P2
2021/01/16 00:00:17;;;;;;;16.80;8.20;;;2.20;74.80;;;;;;6274816;22;20035;-80
2021/01/16 00:02:43;;;;;;;15.07;8.23;;;2.20;74.40;;;;;;6275283;22;20003;-79
2021/01/16 00:05:09;;;;;;;15.63;7.70;;;2.20;73.00;;;;;;6275737;22;19999;-79
2021/01/16 00:07:34;;;;;;;19.63;8.13;;;2.20;73.00;;;;;;6275403;22;20049;-79
2021/01/16 00:10:00;;;;;;;16.77;8.00;;;2.20;73.70;;;;;;6275524;22;20370;-79
2021/01/16 00:12:26;;;;;;;17.57;7.70;;;2.10;75.40;;;;;;6277660;22;20079;-79
2021/01/16 00:14:51;;;;;;;16.97;8.57;;;2.10;75.90;;;;;;6277989;22;20010;-79
2021/01/16 00:17:17;;;;;;;16.53;7.97;;;2.00;76.20;;;;;;6277401;22;20042;-80
2021/01/16 00:19:42;;;;;;;16.83;8.23;;;2.00;77.00;;;;;;6276992;22;20006;-79
2021/01/16 00:22:08;;;;;;;16.60;8.07;;;2.00;77.20;;;;;;6277061;22;19996;-79
2021/01/16 00:24:33;;;;;;;15.40;7.50;;;2.00;77.20;;;;;;6277290;22;20008;-79
2021/01/16 00:26:59;;;;;;;15.50;7.40;;;1.90;77.90;;;;;;6277586;22;20014;-79
2021/01/16 00:29:25;;;;;;;16.23;7.43;;;2.00;78.10;;;;;;6276856;22;20086;-79
2021/01/16 00:31:50;;;;;;;15.73;7.50;;;2.10;78.00;;;;;;6250125;22;20066;-80
2021/01/16 00:34:16;;;;;;;14.80;7.53;;;2.00;77.80;;;;;;6277302;22;20003;-79
2021/01/16 00:36:41;;;;;;;17.00;7.60;;;2.00;77.50;;;;;;6277296;22;20007;-79
2021/01/16 00:39:08;;;;;;;14.83;7.13;;;2.00;77.50;;;;;;6276799;22;20004;-79
2021/01/16 00:41:34;;;;;;;16.90;7.80;;;2.00;77.60;;;;;;6277406;22;20004;-79
2021/01/16 00:44:00;;;;;;;14.60;7.50;;;2.00;78.30;;;;;;6277509;22;20007;-79
2021/01/16 00:46:25;;;;;;;15.30;7.87;;;1.90;78.20;;;;;;6277704;22;20324;-79
2021/01/16 00:48:51;;;;;;;15.47;7.93;;;1.90;78.20;;;;;;6277066;22;20003;-80
2021/01/16 00:51:17;;;;;;;14.30;7.40;;;1.90;78.40;;;;;;6276674;22;20008;-79
2021/01/16 00:53:42;;;;;;;16.63;8.10;;;1.80;78.10;;;;;;6277222;22;20504;-79
2021/01/16 00:56:08;;;;;;;14.23;7.37;;;1.80;78.00;;;;;;6277477;22;20049;-79
2021/01/16 00:58:33;;;;;;;16.47;7.77;;;1.80;78.10;;;;;;6277269;22;20045;-79
2021/01/16 01:00:59;;;;;;;17.73;8.10;;;1.90;78.10;;;;;;6276185;22;20010;-79
2021/01/16 01:03:25;;;;;;;17.07;7.90;;;1.90;78.00;;;;;;6277340;22;19996;-79
2021/01/16 01:05:51;;;;;;;14.17;7.57;;;1.90;78.40;;;;;;6277195;22;20360;-79
2021/01/16 01:08:24;;;;;;;15.40;7.60;;;1.90;78.50;;;;;;6277124;22;20010;-79
2021/01/16 01:10:50;;;;;;;17.23;8.20;;;1.80;79.00;;;;;;6276469;22;20090;-79
2021/01/16 01:13:15;;;;;;;16.47;8.17;;;1.80;79.30;;;;;;6276851;22;20046;-80
2021/01/16 01:15:41;;;;;;;15.30;8.07;;;1.80;79.00;;;;;;6277317;22;20046;-79
2021/01/16 01:18:07;;;;;;;14.83;8.00;;;1.70;79.40;;;;;;6277011;22;20034;-80
2021/01/16 01:20:33;;;;;;;16.63;8.73;;;1.70;79.40;;;;;;6276009;22;20121;-79
2021/01/16 01:22:59;;;;;;;17.13;8.50;;;1.80;79.30;;;;;;6276563;22;20036;-79
2021/01/16 01:25:25;;;;;;;17.13;8.70;;;1.80;79.10;;;;;;6276996;22;20004;-80
2021/01/16 01:27:56;;;;;;;21.57;8.73;;;1.80;79.10;;;;;;6276902;22;20349;-79
2021/01/16 01:30:24;;;;;;;16.70;8.37;;;1.80;79.20;;;;;;6275835;22;20053;-79
2021/01/16 01:32:50;;;;;;;17.77;8.40;;;1.80;79.40;;;;;;6276516;22;20014;-79
2021/01/16 01:35:17;;;;;;;16.37;8.93;;;1.70;79.60;;;;;;6276946;22;20018;-79
2021/01/16 01:37:45;;;;;;;16.70;8.93;;;1.80;79.80;;;;;;6276761;22;20010;-79
2021/01/16 01:40:13;;;;;;;19.43;8.43;;;1.80;79.80;;;;;;6248919;22;20003;-79
2021/01/16 01:42:39;;;;;;;18.03;9.63;;;1.80;79.90;;;;;;6276609;22;20011;-79
2021/01/16 01:45:09;;;;;;;22.20;10.20;;;1.90;79.00;;;;;;6276823;22;19995;-80
2021/01/16 01:47:41;;;;;;;21.13;9.47;;;1.90;78.70;;;;;;6276915;22;20500;-81
2021/01/16 01:50:09;;;;;;;19.20;9.33;;;1.80;78.90;;;;;;6276588;22;20004;-80
2021/01/16 01:52:35;;;;;;;18.00;8.47;;;1.80;79.20;;;;;;6276778;22;20010;-81
2021/01/16 01:55:05;;;;;;;21.67;9.77;;;1.80;79.30;;;;;;6277919;22;20430;-80
2021/01/16 01:57:32;;;;;;;;;;;1.80;79.50;;;;;;6277131;22;20075;-81
2021/01/16 02:00:03;;;;;;;17.20;8.10;;;1.80;79.90;;;;;;6276450;22;20110;-80
2021/01/16 02:02:33;;;;;;;18.07;8.80;;;1.80;80.00;;;;;;6276762;22;20403;-80
2021/01/16 02:05:01;;;;;;;18.90;8.37;;;1.80;80.70;;;;;;6276823;22;20006;-81
2021/01/16 02:07:37;;;;;;;18.47;8.47;;;1.80;80.40;;;;;;6276941;22;20004;-81
2021/01/16 02:10:06;;;;;;;18.27;8.07;;;1.80;80.40;;;;;;6276230;22;20087;-80
2021/01/16 02:12:32;;;;;;;16.65;8.27;;;1.80;80.20;;;;;;6276460;22;20004;-80
2021/01/16 02:15:26;;;;;;;15.70;8.93;;;1.80;80.20;;;;;;6276634;22;19996;-80
2021/01/16 02:18:14;;;;;;;15.23;7.87;;;1.80;80.30;;;;;;6275252;22;20008;-81
2021/01/16 02:20:44;;;;;;;16.37;7.60;;;1.80;80.00;;;;;;6275859;22;20078;-80
2021/01/16 02:23:12;;;;;;;16.23;8.00;;;1.80;80.30;;;;;;6276514;22;19999;-80
2021/01/16 02:25:48;;;;;;;15.75;7.72;;;1.80;80.00;;;;;;6276762;22;20075;-81
2021/01/16 02:28:30;;;;;;;16.20;7.63;;;1.80;79.80;;;;;;6249690;22;20088;-81
2021/01/16 02:30:56;;;;;;;17.70;8.20;;;1.80;79.80;;;;;;6275640;22;20008;-81
2021/01/16 02:33:25;;;;;;;18.67;8.23;;;1.70;79.50;;;;;;6248978;22;20427;-81
2021/01/16 02:36:08;;;;;;;16.03;8.27;;;1.70;79.50;;;;;;6276218;22;20331;-80
2021/01/16 02:39:12;;;;;;;16.13;8.40;;;1.70;79.60;;;;;;6276372;22;20230;-81
2021/01/16 02:42:07;;;;;;;18.13;8.43;;;1.80;79.50;;;;;;6218542;22;20011;-82
2021/01/16 02:44:38;;;;;;;19.80;8.13;;;1.70;79.90;;;;;;6276412;22;20019;-80
2021/01/16 02:47:32;;;;;;;17.00;8.13;;;1.70;80.00;;;;;;6249279;22;20339;-81
2021/01/16 02:50:06;;;;;;;15.87;8.40;;;1.80;80.00;;;;;;6275559;22;20020;-81
2021/01/16 02:52:39;;;;;;;15.50;7.73;;;1.70;80.10;;;;;;6276420;22;20004;-81
2021/01/16 02:55:07;;;;;;;16.60;8.57;;;1.80;80.10;;;;;;6276897;22;20076;-81
2021/01/16 02:57:33;;;;;;;16.03;8.10;;;1.80;79.60;;;;;;6276179;22;20011;-81
2021/01/16 02:59:58;;;;;;;16.33;8.47;;;1.80;79.60;;;;;;6276083;22;19996;-80
2021/01/16 03:02:24;;;;;;;17.17;8.67;;;1.80;79.60;;;;;;6276106;22;20430;-81
2021/01/16 03:04:50;;;;;;;16.33;8.23;;;1.80;79.90;;;;;;6276471;22;20335;-80
2021/01/16 03:07:16;;;;;;;17.53;8.93;;;1.80;79.70;;;;;;6276506;22;20353;-81
2021/01/16 03:09:42;;;;;;;15.23;7.90;;;1.80;79.60;;;;;;6275537;22;20366;-82
2021/01/16 03:12:09;;;;;;;17.33;8.40;;;1.80;79.60;;;;;;6275735;22;20078;-81
2021/01/16 03:14:36;;;;;;;18.40;8.60;;;1.70;79.80;;;;;;6276312;22;20462;-82
2021/01/16 03:17:07;;;;;;;15.53;8.03;;;1.70;80.10;;;;;;6276167;22;20007;-81
2021/01/16 03:19:34;;;;;;;14.87;8.20;;;1.70;80.40;;;;;;6275962;22;20006;-81
2021/01/16 03:22:06;;;;;;;16.67;8.13;;;1.70;80.20;;;;;;6275945;22;20061;-82
2021/01/16 03:24:32;;;;;;;17.03;8.70;;;1.80;80.20;;;;;;6276231;22;20000;-81
2021/01/16 03:26:57;;;;;;;17.13;7.77;;;1.80;79.90;;;;;;6276304;22;20087;-80
2021/01/16 03:29:23;;;;;;;17.00;8.83;;;1.70;79.90;;;;;;6275396;22;20000;-81
2021/01/16 03:31:48;;;;;;;16.57;8.57;;;1.70;79.70;;;;;;6278015;22;20113;-81
2021/01/16 03:34:14;;;;;;;17.60;8.43;;;1.70;79.50;;;;;;6278403;22;20082;-82
2021/01/16 03:36:40;;;;;;;16.00;8.17;;;1.70;79.60;;;;;;6276666;22;20053;-81
2021/01/16 03:39:05;;;;;;;18.50;7.97;;;1.70;79.50;;;;;;6276003;22;19999;-81
2021/01/16 03:41:31;;;;;;;16.37;8.77;;;1.70;80.10;;;;;;6275861;22;19996;-81
2021/01/16 03:43:57;;;;;;;20.27;8.30;;;1.70;80.20;;;;;;6275577;22;20059;-81
2021/01/16 03:46:22;;;;;;;17.17;8.40;;;1.70;80.40;;;;;;6274354;22;20312;-81
2021/01/16 03:48:48;;;;;;;20.40;9.27;;;1.70;80.40;;;;;;6275221;22;20000;-81
2021/01/16 03:51:14;;;;;;;15.93;8.30;;;1.70;80.40;;;;;;6275874;22;20427;-80
2021/01/16 03:53:40;;;;;;;16.37;8.17;;;1.70;80.40;;;;;;6276098;22;20003;-80
2021/01/16 03:56:05;;;;;;;17.17;8.87;;;1.70;80.30;;;;;;6248436;22;20037;-80
2021/01/16 03:58:31;;;;;;;18.23;8.50;;;1.70;80.30;;;;;;6248599;22;20071;-81
2021/01/16 04:00:57;;;;;;;16.20;8.43;;;1.70;80.50;;;;;;6275130;22;20003;-81
2021/01/16 04:03:22;;;;;;;16.17;8.50;;;1.70;80.70;;;;;;6275866;22;20027;-81
2021/01/16 04:05:48;;;;;;;19.63;8.53;;;1.80;80.40;;;;;;6275644;22;20004;-81
2021/01/16 04:08:14;;;;;;;13.93;7.80;;;1.80;80.30;;;;;;6275713;22;20334;-81
2021/01/16 04:10:39;;;;;;;18.53;8.97;;;1.80;80.60;;;;;;6274868;22;20458;-81
2021/01/16 04:13:05;;;;;;;18.33;8.93;;;1.80;80.50;;;;;;6248602;22;20008;-81
2021/01/16 04:15:30;;;;;;;17.53;8.97;;;1.80;80.10;;;;;;6275782;22;20043;-81
2021/01/16 04:17:56;;;;;;;17.17;8.33;;;1.80;80.40;;;;;;6275572;22;20000;-80
2021/01/16 04:20:21;;;;;;;18.50;8.83;;;1.70;80.70;;;;;;6274839;22;20373;-81
2021/01/16 04:22:50;;;;;;;21.17;9.70;;;1.80;81.00;;;;;;6275611;22;20026;-81
2021/01/16 04:25:16;;;;;;;16.42;8.27;;;1.70;81.10;;;;;;6275547;22;20431;-80
2021/01/16 04:27:42;;;;;;;19.50;9.20;;;1.70;81.10;;;;;;6275782;22;20000;-81
2021/01/16 04:30:08;;;;;;;17.60;8.93;;;1.70;81.40;;;;;;6275314;22;20431;-81
2021/01/16 04:32:33;;;;;;;18.67;9.47;;;1.70;81.40;;;;;;6275407;22;20287;-80
2021/01/16 04:34:59;;;;;;;20.17;9.27;;;1.70;81.20;;;;;;6248450;22;20007;-81
2021/01/16 04:37:25;;;;;;;18.67;9.30;;;1.70;81.30;;;;;;6275994;22;20004;-81
2021/01/16 04:39:50;;;;;;;17.57;8.97;;;1.70;81.00;;;;;;6246979;22;20004;-80
2021/01/16 04:42:17;;;;;;;18.60;9.53;;;1.70;81.10;;;;;;6248308;22;20000;-81
2021/01/16 04:44:45;;;;;;;17.47;9.53;;;1.80;80.70;;;;;;6275544;22;20522;-81
2021/01/16 04:47:22;;;;;;;19.47;9.57;;;1.80;80.40;;;;;;6275339;22;20014;-81
2021/01/16 04:49:49;;;;;;;18.87;8.80;;;1.90;80.20;;;;;;6275253;22;20339;-81
2021/01/16 04:52:23;;;;;;;18.00;9.10;;;1.90;80.60;;;;;;6248159;22;20106;-80
2021/01/16 04:54:51;;;;;;;17.47;8.70;;;1.90;80.60;;;;;;6275616;22;20004;-81
2021/01/16 04:57:18;;;;;;;20.00;9.60;;;1.90;80.50;;;;;;6276293;22;20454;-81
2021/01/16 04:59:44;;;;;;;20.17;9.60;;;1.80;80.70;;;;;;6249521;22;20007;-81
2021/01/16 05:02:10;;;;;;;16.17;9.00;;;1.90;81.30;;;;;;6277253;22;20029;-80
2021/01/16 05:04:39;;;;;;;17.07;9.33;;;1.90;81.30;;;;;;6277475;22;19995;-81
2021/01/16 05:07:09;;;;;;;18.00;9.65;;;1.80;81.20;;;;;;6277328;22;20427;-81
2021/01/16 05:09:40;;;;;;;18.25;9.52;;;1.80;81.50;;;;;;6277052;22;20009;-81
2021/01/16 05:12:05;;;;;;;21.87;10.17;;;1.90;81.50;;;;;;6277583;22;20065;-80
2021/01/16 05:14:43;;;;;;;19.13;9.87;;;1.90;81.10;;;;;;6277542;22;20441;-80
2021/01/16 05:17:10;;;;;;;17.70;9.57;;;1.90;81.10;;;;;;6277267;22;19996;-80
2021/01/16 05:19:36;;;;;;;19.67;9.77;;;1.90;81.20;;;;;;6249653;22;20334;-81
2021/01/16 05:22:03;;;;;;;20.70;10.50;;;1.90;81.70;;;;;;6277191;22;20004;-81
2021/01/16 05:24:28;;;;;;;18.00;9.27;;;1.80;81.20;;;;;;6277513;22;20024;-81
2021/01/16 05:26:54;;;;;;;18.73;9.97;;;1.80;81.70;;;;;;6277033;22;20007;-80
2021/01/16 05:29:25;;;;;;;19.57;9.87;;;1.80;81.90;;;;;;6276583;22;20010;-80
2021/01/16 05:31:52;;;;;;;20.57;9.70;;;1.90;81.60;;;;;;6291828;22;20598;-84
2021/01/16 05:34:18;;;;;;;17.67;9.53;;;1.90;81.30;;;;;;6289671;22;19999;-86
2021/01/16 05:36:48;;;;;;;18.70;9.73;;;1.90;81.10;;;;;;6288932;22;20006;-85
2021/01/16 05:39:15;;;;;;;17.43;9.10;;;1.90;81.10;;;;;;6288132;22;20008;-86
2021/01/16 05:41:42;;;;;;;18.20;10.10;;;1.90;80.60;;;;;;6277804;22;20031;-85
2021/01/16 05:44:08;;;;;;;19.57;9.37;;;1.80;81.40;;;;;;6259775;22;20004;-86
2021/01/16 05:46:35;;;;;;;18.80;9.90;;;1.90;81.60;;;;;;6258253;22;20030;-85
2021/01/16 05:49:02;;;;;;;17.20;9.67;;;1.90;80.90;;;;;;6258320;22;20003;-85
2021/01/16 05:51:29;;;;;;;18.33;9.77;;;2.00;80.00;;;;;;6259140;22;20004;-84
2021/01/16 05:53:55;;;;;;;17.17;9.10;;;2.00;79.60;;;;;;6259348;22;20425;-84
2021/01/16 05:56:22;;;;;;;16.87;9.57;;;2.00;79.50;;;;;;6286358;22;20011;-85
2021/01/16 05:58:50;;;;;;;17.63;9.50;;;2.00;79.30;;;;;;6258134;22;19999;-88
2021/01/16 06:01:23;;;;;;;71.80;29.37;;;2.00;79.00;;;;;;6258874;22;20006;-84
2021/01/16 06:03:55;;;;;;;22.27;10.90;;;2.00;78.70;;;;;;6259123;22;20003;-84
2021/01/16 06:06:22;;;;;;;19.00;9.13;;;2.00;79.00;;;;;;6259230;22;20003;-84
2021/01/16 06:08:55;;;;;;;17.47;9.63;;;2.00;78.70;;;;;;6258600;22;20010;-85
2021/01/16 06:11:21;;;;;;;18.30;9.47;;;2.10;78.80;;;;;;6259371;22;20010;-85
2021/01/16 06:13:49;;;;;;;17.27;8.97;;;2.10;78.60;;;;;;6259798;22;20004;-85
2021/01/16 06:16:17;;;;;;;19.00;9.57;;;2.10;78.60;;;;;;6258390;22;20083;-86
2021/01/16 06:18:55;;;;;;;17.13;8.70;;;2.10;78.40;;;;;;6259593;22;19999;-85
2021/01/16 06:21:26;;;;;;;16.83;9.07;;;2.10;78.20;;;;;;6286259;22;20011;-84
2021/01/16 06:24:00;;;;;;;17.53;9.00;;;2.00;78.50;;;;;;6260309;22;20003;-84
2021/01/16 06:26:27;;;;;;;21.07;9.60;;;2.00;78.70;;;;;;6259775;22;20434;-85
2021/01/16 06:28:56;;;;;;;19.07;9.70;;;2.10;78.60;;;;;;6259573;22;20004;-87
2021/01/16 06:31:27;;;;;;;19.83;8.77;;;2.00;78.50;;;;;;6258237;22;20061;-85
2021/01/16 06:34:05;;;;;;;19.07;9.57;;;2.10;78.60;;;;;;6286259;22;20006;-84
2021/01/16 06:36:32;;;;;;;18.90;10.60;;;2.00;79.90;;;;;;6259335;22;20529;-84
2021/01/16 06:39:01;;;;;;;18.10;9.40;;;2.00;79.30;;;;;;6258876;22;20000;-83
2021/01/16 06:41:30;;;;;;;21.77;10.60;;;2.00;79.30;;;;;;6258991;22;20000;-85
2021/01/16 06:43:56;;;;;;;20.40;10.27;;;2.10;79.00;;;;;;6258658;22;20027;-85
2021/01/16 06:46:42;;;;;;;19.80;9.67;;;2.00;79.10;;;;;;6286954;22;19995;-84
2021/01/16 06:49:28;;;;;;;21.20;9.97;;;2.00;78.70;;;;;;6259159;22;20000;-84
2021/01/16 06:51:59;;;;;;;19.07;9.67;;;2.00;78.90;;;;;;6259214;22;20059;-84
2021/01/16 06:54:30;;;;;;;19.00;9.70;;;2.00;79.00;;;;;;6259683;22;20091;-85
2021/01/16 06:57:07;;;;;;;17.73;9.30;;;2.00;79.20;;;;;;6259360;22;20326;-85
2021/01/16 06:59:34;;;;;;;17.93;9.50;;;2.00;78.90;;;;;;6257785;22;20000;-85
2021/01/16 07:02:13;;;;;;;19.87;10.13;;;2.00;79.20;;;;;;6260610;22;20007;-85
2021/01/16 07:04:49;;;;;;;18.57;10.07;;;2.10;79.40;;;;;;6260659;22;20031;-85
2021/01/16 07:07:19;;;;;;;20.17;9.97;;;2.00;79.30;;;;;;6285206;22;20004;-84
2021/01/16 07:09:46;;;;;;;24.77;11.30;;;2.00;79.40;;;;;;6258750;22;20403;-84
2021/01/16 07:12:18;;;;;;;20.37;10.73;;;2.00;79.40;;;;;;6284997;22;20004;-84
2021/01/16 07:14:43;;;;;;;22.17;10.63;;;2.00;79.70;;;;;;6284541;22;20010;-87
2021/01/16 07:17:10;;;;;;;20.93;11.43;;;2.00;79.80;;;;;;6285584;22;20008;-84
2021/01/16 07:19:36;;;;;;;24.13;11.83;;;2.10;79.80;;;;;;6285816;22;20059;-87
2021/01/16 07:22:02;;;;;;;24.93;10.70;;;2.10;79.90;;;;;;6259415;22;20004;-84
2021/01/16 07:24:27;;;;;;;21.67;11.90;;;2.00;80.20;;;;;;6285176;22;20073;-85
2021/01/16 07:26:55;;;;;;;22.00;11.97;;;2.10;80.30;;;;;;6287223;22;20141;-84
2021/01/16 07:29:20;;;;;;;27.00;12.60;;;2.00;80.40;;;;;;6258789;22;20008;-85
2021/01/16 07:31:46;;;;;;;23.07;12.00;;;2.10;80.50;;;;;;6259764;22;20082;-85
2021/01/16 07:34:13;;;;;;;25.07;12.93;;;2.10;80.40;;;;;;6285237;22;19999;-86
2021/01/16 07:36:40;;;;;;;24.77;12.03;;;2.10;80.70;;;;;;6259856;22;20025;-85
2021/01/16 07:39:11;;;;;;;23.23;12.57;;;2.10;80.40;;;;;;6259546;22;20004;-84
2021/01/16 07:41:38;;;;;;;21.77;12.43;;;2.10;80.40;;;;;;6260401;22;20059;-86
2021/01/16 07:44:11;;;;;;;25.63;13.43;;;2.10;80.30;;;;;;6260152;22;20027;-87
2021/01/16 07:46:39;;;;;;;24.50;12.50;;;2.10;80.50;;;;;;6259019;22;20037;-87
2021/01/16 07:49:07;;;;;;;29.98;12.70;;;2.10;80.50;;;;;;6260094;22;20030;-85
2021/01/16 07:51:35;;;;;;;27.27;12.87;;;2.00;80.80;;;;;;6259168;22;20000;-87
2021/01/16 07:54:04;;;;;;;31.87;13.83;;;2.00;80.60;;;;;;6259486;22;20083;-87
2021/01/16 07:56:43;;;;;;;30.75;13.10;;;2.10;80.80;;;;;;6285028;22;19996;-86
2021/01/16 07:59:22;;;;;;;27.23;13.07;;;2.10;80.30;;;;;;6258647;22;20011;-86
2021/01/16 08:02:27;;;;;;;27.97;13.90;;;2.10;80.40;;;;;;6260264;22;20003;-86
2021/01/16 08:05:15;;;;;;;24.53;13.07;;;2.10;80.10;;;;;;6259861;22;20562;-85
2021/01/16 08:08:11;;;;;;;27.50;13.67;;;2.10;80.10;;;;;;6285750;22;20223;-87
2021/01/16 08:10:39;;;;;;;25.97;13.17;;;2.10;80.20;;;;;;6287024;22;20049;-86
2021/01/16 08:13:12;;;;;;;27.33;13.53;;;2.10;80.10;;;;;;6287379;22;20003;-86
2021/01/16 08:15:42;;;;;;;26.23;13.70;;;2.10;80.10;;;;;;6287956;22;20003;-87
2021/01/16 08:18:19;;;;;;;26.93;13.57;;;2.10;80.10;;;;;;6260657;22;20015;-87
2021/01/16 08:20:47;;;;;;;25.23;11.90;;;2.20;79.80;;;;;;6260071;22;20003;-87
2021/01/16 08:23:24;;;;;;;28.00;13.40;;;2.10;79.90;;;;;;6260452;22;20003;-87
2021/01/16 08:25:50;;;;;;;25.97;13.33;;;2.20;80.00;;;;;;6261921;22;19999;-86
2021/01/16 08:28:24;;;;;;;25.87;13.27;;;2.20;79.80;;;;;;6288580;22;20048;-87
2021/01/16 08:30:50;;;;;;;24.37;12.60;;;2.20;79.70;;;;;;6261786;22;20193;-86
2021/01/16 08:33:16;;;;;;;26.23;13.13;;;2.20;79.80;;;;;;6289261;22;20011;-86
2021/01/16 08:35:43;;;;;;;24.90;13.27;;;2.20;80.10;;;;;;6263635;22;20004;-87
2021/01/16 08:38:18;;;;;;;29.73;14.03;;;2.20;79.90;;;;;;6263931;22;20026;-87
2021/01/16 08:41:03;;;;;;;24.37;13.70;;;2.20;79.80;;;;;;6295755;22;20003;-85
2021/01/16 08:43:32;;;;;;;25.87;13.67;;;2.20;79.80;;;;;;6276649;22;19999;-86
2021/01/16 08:46:17;;;;;;;27.70;12.73;;;2.20;80.00;;;;;;6276306;22;20007;-85
2021/01/16 08:49:10;;;;;;;26.93;13.27;;;2.20;80.00;;;;;;6300488;22;20032;-87
2021/01/16 08:51:36;;;;;;;24.63;12.50;;;2.20;79.80;;;;;;6275196;22;20000;-86
2021/01/16 08:54:06;;;;;;;25.23;12.93;;;2.30;79.70;;;;;;6297536;22;20134;-86
2021/01/16 08:56:31;;;;;;;24.30;12.87;;;2.30;79.80;;;;;;6294694;22;20008;-86
2021/01/16 08:58:57;;;;;;;24.03;12.93;;;2.20;79.60;;;;;;6261877;22;20030;-86
2021/01/16 09:01:24;;;;;;;23.07;12.27;;;2.20;79.60;;;;;;6261840;22;20338;-86
2021/01/16 09:04:15;;;;;;;25.17;12.70;;;2.20;79.60;;;;;;6289067;22;20003;-86
2021/01/16 09:06:41;;;;;;;25.30;12.67;;;2.30;79.80;;;;;;6287363;22;20008;-85
2021/01/16 09:09:07;;;;;;;25.60;13.00;;;2.20;79.60;;;;;;6286530;22;20057;-86
2021/01/16 09:11:33;;;;;;;24.80;12.47;;;2.30;79.60;;;;;;6262510;22;20059;-86
2021/01/16 09:14:01;;;;;;;22.50;12.63;;;2.30;79.40;;;;;;6262044;22;19999;-87
2021/01/16 09:16:32;;;;;;;24.90;13.23;;;2.30;79.30;;;;;;6288726;22;20070;-87
2021/01/16 09:18:58;;;;;;;27.57;13.60;;;2.30;79.60;;;;;;6261790;22;20003;-85
2021/01/16 09:21:25;;;;;;;26.00;13.37;;;2.30;79.20;;;;;;6261986;22;20007;-86
2021/01/16 09:23:51;;;;;;;24.73;12.93;;;2.30;79.10;;;;;;6261742;22;20010;-87
2021/01/16 09:26:19;;;;;;;25.57;13.33;;;2.30;78.90;;;;;;6289248;22;19996;-88
2021/01/16 09:28:57;;;;;;;24.10;12.60;;;2.30;78.80;;;;;;6261007;22;20061;-86
2021/01/16 09:31:42;;;;;;;27.87;13.50;;;2.30;78.60;;;;;;6287796;22;20026;-87
2021/01/16 09:34:13;;;;;;;26.07;13.27;;;2.40;78.20;;;;;;6255154;22;20007;-86
2021/01/16 09:36:42;;;;;;;25.20;13.27;;;2.30;78.20;;;;;;6277581;22;19999;-85
2021/01/16 09:39:31;;;;;;;26.45;13.07;;;2.30;78.30;;;;;;6275705;22;20008;-86
2021/01/16 09:42:18;;;;;;;24.45;12.80;;;2.30;78.20;;;;;;6250705;22;20027;-86
2021/01/16 09:44:44;;;;;;;28.27;13.23;;;2.30;77.90;;;;;;6251924;22;20446;-87
2021/01/16 09:47:25;;;;;;;29.20;12.87;;;2.30;77.70;;;;;;6286228;22;20008;-85
2021/01/16 09:50:12;;;;;;;28.60;12.87;;;2.40;77.00;;;;;;6282945;22;20004;-85
2021/01/16 09:53:07;;;;;;;25.27;12.67;;;2.40;77.10;;;;;;6234327;22;20004;-86
2021/01/16 09:55:38;;;;;;;25.10;12.83;;;2.40;77.30;;;;;;6224366;22;20035;-86
2021/01/16 09:58:36;;;;;;;25.80;13.03;;;2.40;77.40;;;;;;6249881;22;20007;-86
2021/01/16 10:01:18;;;;;;;25.67;12.70;;;2.40;77.70;;;;;;6275836;22;20043;-86
2021/01/16 10:03:46;;;;;;;23.27;12.50;;;2.40;77.50;;;;;;6249594;22;20023;-86
2021/01/16 10:06:17;;;;;;;26.03;13.73;;;2.40;77.80;;;;;;6276391;22;20027;-86
2021/01/16 10:08:42;;;;;;;25.40;12.70;;;2.40;77.80;;;;;;6249484;22;20035;-86
2021/01/16 10:11:08;;;;;;;25.07;12.47;;;2.40;77.80;;;;;;6248130;22;20011;-86
2021/01/16 10:13:38;;;;;;;28.00;13.77;;;2.40;77.90;;;;;;6274980;22;20058;-86
2021/01/16 10:16:09;;;;;;;24.90;12.37;;;2.40;77.80;;;;;;6249350;22;20315;-86
2021/01/16 10:18:37;;;;;;;24.03;12.30;;;2.40;78.20;;;;;;6249212;22;20010;-86
2021/01/16 10:21:12;;;;;;;25.63;13.07;;;2.40;78.20;;;;;;6248253;22;20000;-86
2021/01/16 10:23:43;;;;;;;26.73;12.87;;;2.40;78.50;;;;;;6249434;22;20342;-85
2021/01/16 10:26:16;;;;;;;26.50;12.53;;;2.40;78.40;;;;;;6274989;22;20003;-86
2021/01/16 10:28:53;;;;;;;23.70;12.33;;;2.40;78.40;;;;;;6249243;22;20007;-86
2021/01/16 10:31:24;;;;;;;24.87;12.83;;;2.40;77.70;;;;;;6274366;22;20046;-86
2021/01/16 10:33:49;;;;;;;25.50;11.90;;;2.40;77.60;;;;;;6249278;22;20004;-86
2021/01/16 10:36:17;;;;;;;24.97;11.87;;;2.50;77.90;;;;;;6249316;22;20015;-85
2021/01/16 10:38:53;;;;;;;21.20;11.60;;;2.50;77.00;;;;;;6276139;22;20004;-85
2021/01/16 10:41:37;;;;;;;23.10;12.87;;;2.50;76.90;;;;;;6275974;22;20036;-85
2021/01/16 10:44:08;;;;;;;28.43;12.67;;;2.50;77.00;;;;;;6276018;22;20074;-86
2021/01/16 10:46:53;;;;;;;22.43;11.83;;;2.50;77.00;;;;;;6276175;22;20063;-86
2021/01/16 10:49:20;;;;;;;24.57;12.13;;;2.50;76.80;;;;;;6248152;22;20323;-85
2021/01/16 10:51:58;;;;;;;23.30;11.40;;;2.50;76.50;;;;;;6275868;22;20114;-85
2021/01/16 10:54:25;;;;;;;22.17;11.87;;;2.50;76.30;;;;;;6276231;22;20007;-86
2021/01/16 10:56:56;;;;;;;23.23;11.57;;;2.50;76.10;;;;;;6275761;22;20130;-85
2021/01/16 10:59:29;;;;;;;25.23;11.63;;;2.60;75.80;;;;;;6275233;22;19996;-85
2021/01/16 11:01:55;;;;;;;25.40;11.50;;;2.60;76.50;;;;;;6248747;22;20010;-86
2021/01/16 11:04:29;;;;;;;22.73;10.70;;;2.50;75.00;;;;;;6274349;22;20094;-86
2021/01/16 11:06:59;;;;;;;20.10;10.53;;;2.60;74.70;;;;;;6275930;22;20032;-86
2021/01/16 11:09:33;;;;;;;21.10;10.50;;;2.50;74.60;;;;;;6274879;22;20004;-86
2021/01/16 11:12:00;;;;;;;20.87;10.17;;;2.60;74.00;;;;;;6275919;22;20007;-86
2021/01/16 11:14:34;;;;;;;22.13;10.00;;;2.60;74.20;;;;;;6274461;22;20030;-85
2021/01/16 11:17:02;;;;;;;19.87;10.07;;;2.50;74.00;;;;;;6275830;22;20066;-86
2021/01/16 11:19:32;;;;;;;22.87;10.60;;;2.60;73.90;;;;;;6273426;22;20004;-85
2021/01/16 11:22:09;;;;;;;19.33;10.20;;;2.60;73.70;;;;;;6248739;22;20004;-85
2021/01/16 11:24:53;;;;;;;22.10;11.07;;;2.60;73.60;;;;;;6275693;22;20003;-86
2021/01/16 11:27:30;;;;;;;20.50;11.07;;;2.60;73.80;;;;;;6274065;22;20004;-85
2021/01/16 11:30:14;;;;;;;20.87;10.53;;;2.60;73.60;;;;;;6248215;22;20004;-85
2021/01/16 11:32:40;;;;;;;20.73;10.43;;;2.60;73.40;;;;;;6266349;22;20011;-81
2021/01/16 11:35:13;;;;;;;19.67;9.90;;;2.60;74.00;;;;;;6307582;22;20031;-82
2021/01/16 11:37:44;;;;;;;18.87;10.00;;;2.70;74.00;;;;;;6308690;22;20011;-81
2021/01/16 11:40:25;;;;;;;24.83;10.13;;;2.70;73.80;;;;;;6308306;22;20031;-82
2021/01/16 11:42:55;;;;;;;21.23;10.70;;;2.70;73.60;;;;;;6259342;22;20003;-81
2021/01/16 11:45:24;;;;;;;18.63;9.73;;;2.70;73.00;;;;;;6277829;22;20000;-82
2021/01/16 11:48:00;;;;;;;22.67;10.52;;;2.70;72.90;;;;;;6277472;22;20078;-82
2021/01/16 11:50:27;;;;;;;22.60;10.07;;;2.70;73.80;;;;;;6278204;22;20438;-82
2021/01/16 11:52:53;;;;;;;20.67;10.70;;;2.70;73.30;;;;;;6277174;22;19999;-82
2021/01/16 11:55:20;;;;;;;22.70;10.77;;;2.70;73.70;;;;;;6276361;22;20041;-82
2021/01/16 11:57:46;;;;;;;23.20;10.57;;;2.70;72.70;;;;;;6277489;22;20421;-82
2021/01/16 12:00:17;;;;;;;21.50;10.33;;;2.70;73.00;;;;;;6275586;22;20030;-82
2021/01/16 12:02:51;;;;;;;24.50;10.93;;;2.70;73.20;;;;;;6277668;22;20542;-81
2021/01/16 12:05:23;;;;;;;23.53;11.07;;;2.80;73.10;;;;;;6278362;22;20022;-82
2021/01/16 12:07:54;;;;;;;19.93;10.03;;;2.70;72.80;;;;;;6279589;22;20334;-82
2021/01/16 12:10:29;;;;;;;22.63;10.83;;;2.70;72.70;;;;;;6279141;22;20326;-82
2021/01/16 12:12:56;;;;;;;27.40;11.83;;;2.80;73.10;;;;;;6278980;22;20042;-82
2021/01/16 12:15:24;;;;;;;23.17;11.13;;;2.70;73.20;;;;;;6280724;22;20004;-81
2021/01/16 12:17:51;;;;;;;25.53;10.43;;;2.70;72.50;;;;;;6281126;22;20025;-82
2021/01/16 12:20:21;;;;;;;23.00;11.10;;;2.70;73.20;;;;;;6280585;22;20373;-82
2021/01/16 12:22:50;;;;;;;21.35;10.13;;;2.70;72.70;;;;;;6281044;22;20002;-82
2021/01/16 12:25:17;;;;;;;22.23;10.77;;;2.70;73.00;;;;;;6280674;22;20018;-81
2021/01/16 12:27:51;;;;;;;20.60;10.07;;;2.70;73.20;;;;;;6280976;22;20032;-82
2021/01/16 12:30:18;;;;;;;19.50;10.40;;;2.80;72.90;;;;;;6278384;22;20057;-83
2021/01/16 12:32:44;;;;;;;25.77;11.23;;;2.80;72.20;;;;;;6281531;22;20018;-82
2021/01/16 12:35:10;;;;;;;24.43;11.47;;;2.80;72.70;;;;;;6281453;22;20066;-81
2021/01/16 12:37:38;;;;;;;22.90;11.20;;;2.70;72.00;;;;;;6254508;22;20031;-82
2021/01/16 12:40:16;;;;;;;19.93;10.50;;;2.70;71.60;;;;;;6279752;22;20509;-83
2021/01/16 12:42:42;;;;;;;28.37;11.83;;;2.70;72.00;;;;;;6280535;22;20125;-82
2021/01/16 12:45:12;;;;;;;23.20;10.73;;;2.70;72.10;;;;;;6279949;22;20422;-81
2021/01/16 12:47:39;;;;;;;24.40;10.57;;;2.70;71.90;;;;;;6280146;22;20484;-81
2021/01/16 12:50:09;;;;;;;27.63;11.17;;;2.80;71.60;;;;;;6251378;22;20007;-81
2021/01/16 12:52:36;;;;;;;22.50;10.50;;;2.70;71.50;;;;;;6279619;22;20004;-82
2021/01/16 12:55:10;;;;;;;18.53;9.73;;;2.70;71.20;;;;;;6280106;22;20075;-81
2021/01/16 12:57:40;;;;;;;21.30;10.33;;;2.70;71.20;;;;;;6279728;22;20012;-81